sensor_id;sensor_type;location;lat;lon;timestamp;temperature;humidity
9323;DHT22;4700;48.822;9.270;2022-09-11T00:02:36;15.30;1.00
9323;DHT22;4700;48.822;9.270;2022-09-11T00:05:25;15.40;1.00
9323;DHT22;4700;48.822;9.270;2022-09-11T00:08:13;15.40;1.00
9323;DHT22;4700;48.822;9.270;2022-09-11T00:11:03;15.40;1.00
9323;DHT22;4700;48.822;9.270;2022-09-11T00:13:51;15.40;1.00
9323;DHT22;4700;48.822;9.270;2022-09-11T00:16:39;15.40;1.00
9323;DHT22;4700;48.822;9.270;2022-09-11T00:19:27;15.40;1.00
9323;DHT22;4700;48.822;9.270;2022-09-11T00:22:13;15.40;1.00
9323;DHT22;4700;48.822;9.270;2022-09-11T00:24:58;15.40;1.00
9323;DHT22;4700;48.822;9.270;2022-09-11T00:27:44;15.50;1.00
9323;DHT22;4700;48.822;9.270;2022-09-11T00:30:30;15.50;1.00
9323;DHT22;4700;48.822;9.270;2022-09-11T00:33:16;15.50;1.00
9323;DHT22;4700;48.822;9.270;2022-09-11T00:36:04;15.50;1.00
9323;DHT22;4700;48.822;9.270;2022-09-11T00:38:52;15.40;1.00
9323;DHT22;4700;48.822;9.270;2022-09-11T00:41:39;15.40;1.00
9323;DHT22;4700;48.822;9.270;2022-09-11T00:44:55;15.40;1.00
9323;DHT22;4700;48.822;9.270;2022-09-11T00:47:43;15.40;1.00
9323;DHT22;4700;48.822;9.270;2022-09-11T00:50:30;15.30;1.00
9323;DHT22;4700;48.822;9.270;2022-09-11T00:53:19;15.40;1.00
9323;DHT22;4700;48.822;9.270;2022-09-11T00:56:07;15.40;1.00
9323;DHT22;4700;48.822;9.270;2022-09-11T00:58:55;15.40;1.00
9323;DHT22;4700;48.822;9.270;2022-09-11T01:01:41;15.50;1.00
9323;DHT22;4700;48.822;9.270;2022-09-11T01:04:27;15.40;1.00
9323;DHT22;4700;48.822;9.270;2022-09-11T01:07:14;15.50;1.00
9323;DHT22;4700;48.822;9.270;2022-09-11T01:10:02;15.50;1.00
9323;DHT22;4700;48.822;9.270;2022-09-11T01:12:54;15.50;1.00
9323;DHT22;4700;48.822;9.270;2022-09-11T01:15:53;15.50;1.00
9323;DHT22;4700;48.822;9.270;2022-09-11T01:18:52;15.50;1.00
9323;DHT22;4700;48.822;9.270;2022-09-11T01:21:55;15.60;1.00
9323;DHT22;4700;48.822;9.270;2022-09-11T01:24:53;15.60;1.00
9323;DHT22;4700;48.822;9.270;2022-09-11T01:27:47;15.60;1.00
9323;DHT22;4700;48.822;9.270;2022-09-11T01:30:37;15.60;1.00
9323;DHT22;4700;48.822;9.270;2022-09-11T01:33:27;15.60;1.00
9323;DHT22;4700;48.822;9.270;2022-09-11T01:36:18;15.60;1.00
9323;DHT22;4700;48.822;9.270;2022-09-11T01:39:05;15.60;1.00
9323;DHT22;4700;48.822;9.270;2022-09-11T01:41:55;15.60;1.00
9323;DHT22;4700;48.822;9.270;2022-09-11T01:44:49;15.60;1.00
9323;DHT22;4700;48.822;9.270;2022-09-11T01:47:36;15.60;1.00
9323;DHT22;4700;48.822;9.270;2022-09-11T01:50:24;15.50;1.00
9323;DHT22;4700;48.822;9.270;2022-09-11T01:53:11;15.50;1.00
9323;DHT22;4700;48.822;9.270;2022-09-11T01:56:04;15.50;1.00
9323;DHT22;4700;48.822;9.270;2022-09-11T01:58:54;15.50;1.00
9323;DHT22;4700;48.822;9.270;2022-09-11T02:01:45;15.50;1.00
9323;DHT22;4700;48.822;9.270;2022-09-11T02:04:37;15.50;1.00
9323;DHT22;4700;48.822;9.270;2022-09-11T02:07:26;15.60;1.00
9323;DHT22;4700;48.822;9.270;2022-09-11T02:10:16;15.60;1.00
9323;DHT22;4700;48.822;9.270;2022-09-11T02:13:10;15.60;1.00
9323;DHT22;4700;48.822;9.270;2022-09-11T02:16:02;15.60;1.00
9323;DHT22;4700;48.822;9.270;2022-09-11T02:18:57;15.60;1.00
9323;DHT22;4700;48.822;9.270;2022-09-11T02:21:44;15.60;1.00
9323;DHT22;4700;48.822;9.270;2022-09-11T02:24:31;15.60;1.00
9323;DHT22;4700;48.822;9.270;2022-09-11T02:27:19;15.60;1.00
9323;DHT22;4700;48.822;9.270;2022-09-11T02:30:10;15.50;1.00
9323;DHT22;4700;48.822;9.270;2022-09-11T02:32:55;15.60;1.00
9323;DHT22;4700;48.822;9.270;2022-09-11T02:35:46;15.60;1.00
9323;DHT22;4700;48.822;9.270;2022-09-11T02:41:07;15.60;1.00
9323;DHT22;4700;48.822;9.270;2022-09-11T02:44:03;15.60;1.00
9323;DHT22;4700;48.822;9.270;2022-09-11T02:47:05;15.60;1.00
9323;DHT22;4700;48.822;9.270;2022-09-11T02:50:03;15.60;1.00
9323;DHT22;4700;48.822;9.270;2022-09-11T02:52:57;15.70;1.00
9323;DHT22;4700;48.822;9.270;2022-09-11T02:55:56;15.70;1.00
9323;DHT22;4700;48.822;9.270;2022-09-11T02:58:47;15.70;1.00
9323;DHT22;4700;48.822;9.270;2022-09-11T03:01:45;15.70;1.00
9323;DHT22;4700;48.822;9.270;2022-09-11T03:04:31;15.70;1.00
9323;DHT22;4700;48.822;9.270;2022-09-11T03:07:19;15.70;1.00
9323;DHT22;4700;48.822;9.270;2022-09-11T03:10:07;15.70;1.00
9323;DHT22;4700;48.822;9.270;2022-09-11T03:12:54;15.80;1.00
9323;DHT22;4700;48.822;9.270;2022-09-11T03:15:42;15.80;1.00
9323;DHT22;4700;48.822;9.270;2022-09-11T03:18:28;15.70;1.00
9323;DHT22;4700;48.822;9.270;2022-09-11T03:21:13;15.70;1.00
9323;DHT22;4700;48.822;9.270;2022-09-11T03:24:00;15.70;1.00
9323;DHT22;4700;48.822;9.270;2022-09-11T03:26:49;15.70;1.00
9323;DHT22;4700;48.822;9.270;2022-09-11T03:29:35;15.70;1.00
9323;DHT22;4700;48.822;9.270;2022-09-11T03:32:21;15.70;1.00
9323;DHT22;4700;48.822;9.270;2022-09-11T03:35:07;15.70;1.00
9323;DHT22;4700;48.822;9.270;2022-09-11T03:37:53;15.70;1.00
9323;DHT22;4700;48.822;9.270;2022-09-11T03:40:41;15.70;1.00
9323;DHT22;4700;48.822;9.270;2022-09-11T03:43:28;15.70;1.00
9323;DHT22;4700;48.822;9.270;2022-09-11T03:46:14;15.70;1.00
9323;DHT22;4700;48.822;9.270;2022-09-11T03:49:01;15.80;1.00
9323;DHT22;4700;48.822;9.270;2022-09-11T03:51:46;15.80;1.00
9323;DHT22;4700;48.822;9.270;2022-09-11T03:54:32;15.80;1.00
9323;DHT22;4700;48.822;9.270;2022-09-11T03:57:17;15.80;1.00
9323;DHT22;4700;48.822;9.270;2022-09-11T04:00:05;15.80;1.00
9323;DHT22;4700;48.822;9.270;2022-09-11T04:02:51;15.80;1.00
9323;DHT22;4700;48.822;9.270;2022-09-11T04:05:38;15.80;1.00
9323;DHT22;4700;48.822;9.270;2022-09-11T04:08:24;15.80;1.00
9323;DHT22;4700;48.822;9.270;2022-09-11T04:11:10;15.80;1.00
9323;DHT22;4700;48.822;9.270;2022-09-11T04:14:01;15.80;1.00
9323;DHT22;4700;48.822;9.270;2022-09-11T04:16:49;15.90;1.00
9323;DHT22;4700;48.822;9.270;2022-09-11T04:19:35;15.90;1.00
9323;DHT22;4700;48.822;9.270;2022-09-11T04:22:22;15.90;1.00
9323;DHT22;4700;48.822;9.270;2022-09-11T04:25:08;15.90;1.00
9323;DHT22;4700;48.822;9.270;2022-09-11T04:27:54;15.90;1.00
9323;DHT22;4700;48.822;9.270;2022-09-11T04:30:40;15.90;1.00
9323;DHT22;4700;48.822;9.270;2022-09-11T04:33:30;15.80;1.00
9323;DHT22;4700;48.822;9.270;2022-09-11T04:36:17;15.80;1.00
9323;DHT22;4700;48.822;9.270;2022-09-11T04:39:04;15.80;1.00
9323;DHT22;4700;48.822;9.270;2022-09-11T04:41:49;15.70;1.00
9323;DHT22;4700;48.822;9.270;2022-09-11T04:44:36;15.80;1.00
9323;DHT22;4700;48.822;9.270;2022-09-11T04:47:22;15.80;1.00
9323;DHT22;4700;48.822;9.270;2022-09-11T04:50:09;15.80;1.00
9323;DHT22;4700;48.822;9.270;2022-09-11T04:52:56;15.80;1.00
9323;DHT22;4700;48.822;9.270;2022-09-11T04:55:42;15.80;1.00
9323;DHT22;4700;48.822;9.270;2022-09-11T04:58:29;15.80;1.00
9323;DHT22;4700;48.822;9.270;2022-09-11T05:01:15;15.80;1.00
9323;DHT22;4700;48.822;9.270;2022-09-11T05:04:01;15.90;1.00
9323;DHT22;4700;48.822;9.270;2022-09-11T05:06:48;15.90;1.00
9323;DHT22;4700;48.822;9.270;2022-09-11T05:09:34;15.90;1.00
9323;DHT22;4700;48.822;9.270;2022-09-11T05:12:20;16.00;1.00
9323;DHT22;4700;48.822;9.270;2022-09-11T05:15:07;15.90;1.00
9323;DHT22;4700;48.822;9.270;2022-09-11T05:17:53;16.00;1.00
9323;DHT22;4700;48.822;9.270;2022-09-11T05:20:38;16.00;1.00
9323;DHT22;4700;48.822;9.270;2022-09-11T05:23:29;16.00;1.00
9323;DHT22;4700;48.822;9.270;2022-09-11T05:26:17;15.90;1.00
9323;DHT22;4700;48.822;9.270;2022-09-11T05:29:05;16.00;1.00
9323;DHT22;4700;48.822;9.270;2022-09-11T05:31:53;16.00;1.00
9323;DHT22;4700;48.822;9.270;2022-09-11T05:34:42;16.00;1.00
9323;DHT22;4700;48.822;9.270;2022-09-11T05:37:27;16.00;1.00
9323;DHT22;4700;48.822;9.270;2022-09-11T05:40:14;15.90;1.00
9323;DHT22;4700;48.822;9.270;2022-09-11T05:43:00;15.90;1.00
9323;DHT22;4700;48.822;9.270;2022-09-11T05:45:53;16.00;1.00
9323;DHT22;4700;48.822;9.270;2022-09-11T05:48:39;16.00;1.00
9323;DHT22;4700;48.822;9.270;2022-09-11T05:51:25;16.00;1.00
9323;DHT22;4700;48.822;9.270;2022-09-11T05:54:11;16.10;1.00
9323;DHT22;4700;48.822;9.270;2022-09-11T05:56:58;16.10;1.00
9323;DHT22;4700;48.822;9.270;2022-09-11T05:59:45;16.10;1.00
9323;DHT22;4700;48.822;9.270;2022-09-11T06:02:31;16.00;1.00
9323;DHT22;4700;48.822;9.270;2022-09-11T06:05:16;16.10;1.00
9323;DHT22;4700;48.822;9.270;2022-09-11T06:08:02;16.10;1.00
9323;DHT22;4700;48.822;9.270;2022-09-11T06:10:48;16.30;1.00
9323;DHT22;4700;48.822;9.270;2022-09-11T06:13:37;16.20;1.00
9323;DHT22;4700;48.822;9.270;2022-09-11T06:16:23;16.20;1.00
9323;DHT22;4700;48.822;9.270;2022-09-11T06:19:09;16.40;1.00
9323;DHT22;4700;48.822;9.270;2022-09-11T06:21:54;16.20;1.00
9323;DHT22;4700;48.822;9.270;2022-09-11T06:24:40;16.30;1.00
9323;DHT22;4700;48.822;9.270;2022-09-11T06:27:26;16.20;1.00
9323;DHT22;4700;48.822;9.270;2022-09-11T06:30:13;16.20;1.00
9323;DHT22;4700;48.822;9.270;2022-09-11T06:32:59;16.30;1.00
9323;DHT22;4700;48.822;9.270;2022-09-11T06:35:54;16.40;1.00
9323;DHT22;4700;48.822;9.270;2022-09-11T06:38:40;16.40;1.00
9323;DHT22;4700;48.822;9.270;2022-09-11T06:41:29;16.50;1.00
9323;DHT22;4700;48.822;9.270;2022-09-11T06:44:15;16.60;1.00
9323;DHT22;4700;48.822;9.270;2022-09-11T06:47:03;16.60;1.00
9323;DHT22;4700;48.822;9.270;2022-09-11T06:49:49;16.60;1.00
9323;DHT22;4700;48.822;9.270;2022-09-11T06:52:34;16.70;1.00
9323;DHT22;4700;48.822;9.270;2022-09-11T06:55:20;16.70;1.00
9323;DHT22;4700;48.822;9.270;2022-09-11T06:58:06;16.90;1.00
9323;DHT22;4700;48.822;9.270;2022-09-11T07:00:54;16.90;1.00
9323;DHT22;4700;48.822;9.270;2022-09-11T07:03:45;17.00;1.00
9323;DHT22;4700;48.822;9.270;2022-09-11T07:06:31;17.10;1.00
9323;DHT22;4700;48.822;9.270;2022-09-11T07:09:21;17.10;1.00
9323;DHT22;4700;48.822;9.270;2022-09-11T07:12:07;17.20;1.00
9323;DHT22;4700;48.822;9.270;2022-09-11T07:14:53;17.30;1.00
9323;DHT22;4700;48.822;9.270;2022-09-11T07:17:39;17.40;1.00
9323;DHT22;4700;48.822;9.270;2022-09-11T07:20:26;17.50;1.00
9323;DHT22;4700;48.822;9.270;2022-09-11T07:23:11;17.80;1.00
9323;DHT22;4700;48.822;9.270;2022-09-11T07:26:01;17.90;1.00
9323;DHT22;4700;48.822;9.270;2022-09-11T07:28:47;18.00;1.00
9323;DHT22;4700;48.822;9.270;2022-09-11T07:31:33;18.10;1.00
9323;DHT22;4700;48.822;9.270;2022-09-11T07:34:22;18.30;1.00
9323;DHT22;4700;48.822;9.270;2022-09-11T07:37:09;18.40;1.00
9323;DHT22;4700;48.822;9.270;2022-09-11T07:39:55;18.40;1.00
9323;DHT22;4700;48.822;9.270;2022-09-11T07:42:41;18.20;1.00
9323;DHT22;4700;48.822;9.270;2022-09-11T07:45:27;18.00;1.00
9323;DHT22;4700;48.822;9.270;2022-09-11T07:48:12;17.80;1.00
9323;DHT22;4700;48.822;9.270;2022-09-11T07:50:59;17.60;1.00
9323;DHT22;4700;48.822;9.270;2022-09-11T07:53:48;17.70;1.00
9323;DHT22;4700;48.822;9.270;2022-09-11T07:56:35;18.00;1.00
9323;DHT22;4700;48.822;9.270;2022-09-11T07:59:21;18.40;1.00
9323;DHT22;4700;48.822;9.270;2022-09-11T08:02:08;18.70;1.00
9323;DHT22;4700;48.822;9.270;2022-09-11T08:04:54;19.10;1.00
9323;DHT22;4700;48.822;9.270;2022-09-11T08:07:40;19.10;1.00
9323;DHT22;4700;48.822;9.270;2022-09-11T08:10:27;19.30;1.00
9323;DHT22;4700;48.822;9.270;2022-09-11T08:13:13;19.50;1.00
9323;DHT22;4700;48.822;9.270;2022-09-11T08:16:00;20.00;1.00
9323;DHT22;4700;48.822;9.270;2022-09-11T08:18:46;20.30;1.00
9323;DHT22;4700;48.822;9.270;2022-09-11T08:21:35;20.40;1.00
9323;DHT22;4700;48.822;9.270;2022-09-11T08:24:22;20.60;1.00
9323;DHT22;4700;48.822;9.270;2022-09-11T08:27:13;20.80;1.00
9323;DHT22;4700;48.822;9.270;2022-09-11T08:29:58;21.10;1.00
9323;DHT22;4700;48.822;9.270;2022-09-11T08:32:44;21.20;1.00
9323;DHT22;4700;48.822;9.270;2022-09-11T08:35:30;21.80;1.00
9323;DHT22;4700;48.822;9.270;2022-09-11T08:38:15;24.10;1.00
9323;DHT22;4700;48.822;9.270;2022-09-11T08:41:09;26.60;1.00
9323;DHT22;4700;48.822;9.270;2022-09-11T08:43:59;28.50;1.00
9323;DHT22;4700;48.822;9.270;2022-09-11T08:46:48;29.50;1.00
9323;DHT22;4700;48.822;9.270;2022-09-11T08:49:37;30.50;1.00
9323;DHT22;4700;48.822;9.270;2022-09-11T08:52:23;32.60;1.00
9323;DHT22;4700;48.822;9.270;2022-09-11T08:55:11;32.60;1.00
9323;DHT22;4700;48.822;9.270;2022-09-11T08:58:04;30.30;1.00
9323;DHT22;4700;48.822;9.270;2022-09-11T09:01:00;27.00;1.00
9323;DHT22;4700;48.822;9.270;2022-09-11T09:03:59;24.90;1.00
9323;DHT22;4700;48.822;9.270;2022-09-11T09:06:59;23.30;1.00
9323;DHT22;4700;48.822;9.270;2022-09-11T09:09:57;22.10;1.00
9323;DHT22;4700;48.822;9.270;2022-09-11T09:12:51;21.80;1.00
9323;DHT22;4700;48.822;9.270;2022-09-11T09:15:46;23.80;1.00
9323;DHT22;4700;48.822;9.270;2022-09-11T09:18:42;26.90;1.00
9323;DHT22;4700;48.822;9.270;2022-09-11T09:21:34;29.00;1.00
9323;DHT22;4700;48.822;9.270;2022-09-11T09:24:21;28.60;1.00
9323;DHT22;4700;48.822;9.270;2022-09-11T09:27:14;26.60;1.00
9323;DHT22;4700;48.822;9.270;2022-09-11T09:30:03;24.70;1.00
9323;DHT22;4700;48.822;9.270;2022-09-11T09:32:58;23.40;1.00
9323;DHT22;4700;48.822;9.270;2022-09-11T09:35:46;24.20;1.00
9323;DHT22;4700;48.822;9.270;2022-09-11T09:38:31;27.80;1.00
9323;DHT22;4700;48.822;9.270;2022-09-11T09:41:46;28.60;1.00
9323;DHT22;4700;48.822;9.270;2022-09-11T09:44:43;28.90;1.00
9323;DHT22;4700;48.822;9.270;2022-09-11T09:47:32;28.60;1.00
9323;DHT22;4700;48.822;9.270;2022-09-11T09:50:19;26.60;1.00
9323;DHT22;4700;48.822;9.270;2022-09-11T09:53:14;24.90;1.00
9323;DHT22;4700;48.822;9.270;2022-09-11T09:56:02;23.60;1.00
9323;DHT22;4700;48.822;9.270;2022-09-11T09:58:53;22.80;1.00
9323;DHT22;4700;48.822;9.270;2022-09-11T10:01:43;22.40;1.00
9323;DHT22;4700;48.822;9.270;2022-09-11T10:04:29;22.40;1.00
9323;DHT22;4700;48.822;9.270;2022-09-11T10:07:19;22.40;1.00
9323;DHT22;4700;48.822;9.270;2022-09-11T10:10:20;22.10;1.00
9323;DHT22;4700;48.822;9.270;2022-09-11T10:13:19;21.90;1.00
9323;DHT22;4700;48.822;9.270;2022-09-11T10:16:18;21.80;1.00
9323;DHT22;4700;48.822;9.270;2022-09-11T10:19:04;21.80;1.00
9323;DHT22;4700;48.822;9.270;2022-09-11T10:21:49;22.10;1.00
9323;DHT22;4700;48.822;9.270;2022-09-11T10:24:35;22.70;1.00
9323;DHT22;4700;48.822;9.270;2022-09-11T10:27:26;23.00;1.00
9323;DHT22;4700;48.822;9.270;2022-09-11T10:30:29;23.00;1.00
9323;DHT22;4700;48.822;9.270;2022-09-11T10:33:27;22.50;1.00
9323;DHT22;4700;48.822;9.270;2022-09-11T10:36:21;21.80;1.00
9323;DHT22;4700;48.822;9.270;2022-09-11T10:39:16;21.40;1.00
9323;DHT22;4700;48.822;9.270;2022-09-11T10:42:11;21.20;1.00
9323;DHT22;4700;48.822;9.270;2022-09-11T10:45:14;21.00;1.00
9323;DHT22;4700;48.822;9.270;2022-09-11T10:48:14;21.10;1.00
9323;DHT22;4700;48.822;9.270;2022-09-11T10:51:07;21.10;1.00
9323;DHT22;4700;48.822;9.270;2022-09-11T10:54:06;21.10;1.00
9323;DHT22;4700;48.822;9.270;2022-09-11T10:57:01;21.20;1.00
9323;DHT22;4700;48.822;9.270;2022-09-11T11:00:03;21.30;1.00
9323;DHT22;4700;48.822;9.270;2022-09-11T11:02:53;21.30;1.00
9323;DHT22;4700;48.822;9.270;2022-09-11T11:05:45;21.50;1.00
9323;DHT22;4700;48.822;9.270;2022-09-11T11:09:01;21.90;1.00
9323;DHT22;4700;48.822;9.270;2022-09-11T11:12:03;22.30;1.00
9323;DHT22;4700;48.822;9.270;2022-09-11T11:15:11;22.40;1.00
9323;DHT22;4700;48.822;9.270;2022-09-11T11:18:16;22.40;1.00
9323;DHT22;4700;48.822;9.270;2022-09-11T11:21:12;22.50;1.00
9323;DHT22;4700;48.822;9.270;2022-09-11T11:24:20;22.50;1.00
9323;DHT22;4700;48.822;9.270;2022-09-11T11:27:24;22.60;1.00
9323;DHT22;4700;48.822;9.270;2022-09-11T11:30:15;22.80;1.00
9323;DHT22;4700;48.822;9.270;2022-09-11T11:33:26;22.80;1.00
9323;DHT22;4700;48.822;9.270;2022-09-11T11:36:23;22.80;1.00
9323;DHT22;4700;48.822;9.270;2022-09-11T11:39:17;22.70;1.00
9323;DHT22;4700;48.822;9.270;2022-09-11T11:42:09;22.70;1.00
9323;DHT22;4700;48.822;9.270;2022-09-11T11:45:02;22.90;1.00
9323;DHT22;4700;48.822;9.270;2022-09-11T11:47:50;23.10;1.00
9323;DHT22;4700;48.822;9.270;2022-09-11T11:50:40;22.80;1.00
9323;DHT22;4700;48.822;9.270;2022-09-11T11:53:30;22.60;1.00
9323;DHT22;4700;48.822;9.270;2022-09-11T11:56:23;22.40;1.00
9323;DHT22;4700;48.822;9.270;2022-09-11T11:59:14;22.30;1.00
9323;DHT22;4700;48.822;9.270;2022-09-11T12:02:04;22.20;1.00
9323;DHT22;4700;48.822;9.270;2022-09-11T12:05:04;22.10;1.00
9323;DHT22;4700;48.822;9.270;2022-09-11T12:07:52;21.90;1.00
9323;DHT22;4700;48.822;9.270;2022-09-11T12:10:40;21.90;1.00
9323;DHT22;4700;48.822;9.270;2022-09-11T12:13:29;21.90;1.00
9323;DHT22;4700;48.822;9.270;2022-09-11T12:16:18;21.80;1.00
9323;DHT22;4700;48.822;9.270;2022-09-11T12:19:06;21.70;1.00
9323;DHT22;4700;48.822;9.270;2022-09-11T12:22:10;21.70;1.00
9323;DHT22;4700;48.822;9.270;2022-09-11T12:25:01;21.70;1.00
9323;DHT22;4700;48.822;9.270;2022-09-11T12:27:52;21.60;1.00
9323;DHT22;4700;48.822;9.270;2022-09-11T12:31:04;21.60;1.00
9323;DHT22;4700;48.822;9.270;2022-09-11T12:33:53;21.90;1.00
9323;DHT22;4700;48.822;9.270;2022-09-11T12:36:50;22.00;1.00
9323;DHT22;4700;48.822;9.270;2022-09-11T12:39:48;22.20;1.00
9323;DHT22;4700;48.822;9.270;2022-09-11T12:42:57;22.30;1.00
9323;DHT22;4700;48.822;9.270;2022-09-11T12:45:44;22.30;1.00
9323;DHT22;4700;48.822;9.270;2022-09-11T12:48:36;22.50;1.00
9323;DHT22;4700;48.822;9.270;2022-09-11T12:51:25;22.60;1.00
9323;DHT22;4700;48.822;9.270;2022-09-11T12:54:15;22.80;1.00
9323;DHT22;4700;48.822;9.270;2022-09-11T12:57:04;22.70;1.00
9323;DHT22;4700;48.822;9.270;2022-09-11T12:59:54;22.60;1.00
9323;DHT22;4700;48.822;9.270;2022-09-11T13:02:43;22.50;1.00
9323;DHT22;4700;48.822;9.270;2022-09-11T13:05:33;22.30;1.00
9323;DHT22;4700;48.822;9.270;2022-09-11T13:08:23;22.20;1.00
9323;DHT22;4700;48.822;9.270;2022-09-11T13:11:34;22.00;1.00
9323;DHT22;4700;48.822;9.270;2022-09-11T13:14:50;21.90;1.00
9323;DHT22;4700;48.822;9.270;2022-09-11T13:17:45;21.70;1.00
9323;DHT22;4700;48.822;9.270;2022-09-11T13:20:30;21.40;1.00
9323;DHT22;4700;48.822;9.270;2022-09-11T13:23:16;21.40;1.00
9323;DHT22;4700;48.822;9.270;2022-09-11T13:26:04;21.40;1.00
9323;DHT22;4700;48.822;9.270;2022-09-11T13:28:52;21.40;1.00
9323;DHT22;4700;48.822;9.270;2022-09-11T13:31:42;21.50;1.00
9323;DHT22;4700;48.822;9.270;2022-09-11T13:34:28;21.50;1.00
9323;DHT22;4700;48.822;9.270;2022-09-11T13:37:20;21.70;1.00
9323;DHT22;4700;48.822;9.270;2022-09-11T13:40:17;21.90;1.00
9323;DHT22;4700;48.822;9.270;2022-09-11T13:43:02;22.00;1.00
9323;DHT22;4700;48.822;9.270;2022-09-11T13:45:48;22.10;1.00
9323;DHT22;4700;48.822;9.270;2022-09-11T13:49:17;22.20;1.00
9323;DHT22;4700;48.822;9.270;2022-09-11T13:52:08;22.50;1.00
9323;DHT22;4700;48.822;9.270;2022-09-11T13:54:57;22.70;1.00
9323;DHT22;4700;48.822;9.270;2022-09-11T13:57:52;22.90;1.00
9323;DHT22;4700;48.822;9.270;2022-09-11T14:00:43;23.00;1.00
9323;DHT22;4700;48.822;9.270;2022-09-11T14:03:31;23.10;1.00
9323;DHT22;4700;48.822;9.270;2022-09-11T14:06:19;23.30;1.00
9323;DHT22;4700;48.822;9.270;2022-09-11T14:09:05;23.20;1.00
9323;DHT22;4700;48.822;9.270;2022-09-11T14:11:51;23.20;1.00
9323;DHT22;4700;48.822;9.270;2022-09-11T14:14:37;23.10;1.00
9323;DHT22;4700;48.822;9.270;2022-09-11T14:17:24;23.10;1.00
9323;DHT22;4700;48.822;9.270;2022-09-11T14:20:14;22.90;1.00
9323;DHT22;4700;48.822;9.270;2022-09-11T14:23:05;22.80;1.00
9323;DHT22;4700;48.822;9.270;2022-09-11T14:26:10;22.80;1.00
9323;DHT22;4700;48.822;9.270;2022-09-11T14:29:02;22.60;1.00
9323;DHT22;4700;48.822;9.270;2022-09-11T14:31:51;22.50;1.00
9323;DHT22;4700;48.822;9.270;2022-09-11T14:34:36;22.30;1.00
9323;DHT22;4700;48.822;9.270;2022-09-11T14:37:24;22.20;1.00
9323;DHT22;4700;48.822;9.270;2022-09-11T14:40:14;22.10;1.00
9323;DHT22;4700;48.822;9.270;2022-09-11T14:43:01;22.10;1.00
9323;DHT22;4700;48.822;9.270;2022-09-11T14:45:47;22.10;1.00
9323;DHT22;4700;48.822;9.270;2022-09-11T14:48:37;22.10;1.00
9323;DHT22;4700;48.822;9.270;2022-09-11T14:51:26;22.00;1.00
9323;DHT22;4700;48.822;9.270;2022-09-11T14:54:13;22.10;1.00
9323;DHT22;4700;48.822;9.270;2022-09-11T14:57:01;22.10;1.00
9323;DHT22;4700;48.822;9.270;2022-09-11T14:59:48;22.30;1.00
9323;DHT22;4700;48.822;9.270;2022-09-11T15:02:34;22.30;1.00
9323;DHT22;4700;48.822;9.270;2022-09-11T15:05:19;22.30;1.00
9323;DHT22;4700;48.822;9.270;2022-09-11T15:08:08;22.20;1.00
9323;DHT22;4700;48.822;9.270;2022-09-11T15:10:54;22.20;1.00
9323;DHT22;4700;48.822;9.270;2022-09-11T15:13:41;22.20;1.00
9323;DHT22;4700;48.822;9.270;2022-09-11T15:16:27;22.20;1.00
9323;DHT22;4700;48.822;9.270;2022-09-11T15:19:13;22.30;1.00
9323;DHT22;4700;48.822;9.270;2022-09-11T15:22:00;22.20;1.00
9323;DHT22;4700;48.822;9.270;2022-09-11T15:24:46;22.10;1.00
9323;DHT22;4700;48.822;9.270;2022-09-11T15:27:32;21.90;1.00
9323;DHT22;4700;48.822;9.270;2022-09-11T15:30:20;21.70;1.00
9323;DHT22;4700;48.822;9.270;2022-09-11T15:33:06;21.60;1.00
9323;DHT22;4700;48.822;9.270;2022-09-11T15:35:52;21.50;1.00
9323;DHT22;4700;48.822;9.270;2022-09-11T15:38:40;21.40;1.00
9323;DHT22;4700;48.822;9.270;2022-09-11T15:41:25;21.40;1.00
9323;DHT22;4700;48.822;9.270;2022-09-11T15:44:15;21.20;1.00
9323;DHT22;4700;48.822;9.270;2022-09-11T15:47:04;21.20;1.00
9323;DHT22;4700;48.822;9.270;2022-09-11T15:49:50;21.40;1.00
9323;DHT22;4700;48.822;9.270;2022-09-11T15:52:36;21.60;1.00
9323;DHT22;4700;48.822;9.270;2022-09-11T15:55:23;21.70;1.00
9323;DHT22;4700;48.822;9.270;2022-09-11T15:58:13;21.80;1.00
9323;DHT22;4700;48.822;9.270;2022-09-11T16:00:59;21.80;1.00
9323;DHT22;4700;48.822;9.270;2022-09-11T16:03:50;22.10;1.00
9323;DHT22;4700;48.822;9.270;2022-09-11T16:06:37;22.50;1.00
9323;DHT22;4700;48.822;9.270;2022-09-11T16:09:26;22.40;1.00
9323;DHT22;4700;48.822;9.270;2022-09-11T16:12:11;22.10;1.00
9323;DHT22;4700;48.822;9.270;2022-09-11T16:14:58;22.40;1.00
9323;DHT22;4700;48.822;9.270;2022-09-11T16:17:44;22.20;1.00
9323;DHT22;4700;48.822;9.270;2022-09-11T16:20:31;22.10;1.00
9323;DHT22;4700;48.822;9.270;2022-09-11T16:23:17;21.80;1.00
9323;DHT22;4700;48.822;9.270;2022-09-11T16:26:07;21.70;1.00
9323;DHT22;4700;48.822;9.270;2022-09-11T16:28:55;21.60;1.00
9323;DHT22;4700;48.822;9.270;2022-09-11T16:31:41;21.80;1.00
9323;DHT22;4700;48.822;9.270;2022-09-11T16:34:27;21.90;1.00
9323;DHT22;4700;48.822;9.270;2022-09-11T16:37:14;22.00;1.00
9323;DHT22;4700;48.822;9.270;2022-09-11T16:40:03;21.60;1.00
9323;DHT22;4700;48.822;9.270;2022-09-11T16:42:49;21.30;1.00
9323;DHT22;4700;48.822;9.270;2022-09-11T16:45:34;21.30;1.00
9323;DHT22;4700;48.822;9.270;2022-09-11T16:48:21;21.20;1.00
9323;DHT22;4700;48.822;9.270;2022-09-11T16:51:08;20.90;1.00
9323;DHT22;4700;48.822;9.270;2022-09-11T16:53:55;20.80;1.00
9323;DHT22;4700;48.822;9.270;2022-09-11T16:56:41;20.80;1.00
9323;DHT22;4700;48.822;9.270;2022-09-11T16:59:29;20.60;1.00
9323;DHT22;4700;48.822;9.270;2022-09-11T17:02:15;20.50;1.00
9323;DHT22;4700;48.822;9.270;2022-09-11T17:05:03;20.40;1.00
9323;DHT22;4700;48.822;9.270;2022-09-11T17:07:50;20.30;1.00
9323;DHT22;4700;48.822;9.270;2022-09-11T17:10:41;20.10;1.00
9323;DHT22;4700;48.822;9.270;2022-09-11T17:13:27;20.00;1.00
9323;DHT22;4700;48.822;9.270;2022-09-11T17:16:15;19.80;1.00
9323;DHT22;4700;48.822;9.270;2022-09-11T17:19:01;19.70;1.00
9323;DHT22;4700;48.822;9.270;2022-09-11T17:21:46;19.60;1.00
9323;DHT22;4700;48.822;9.270;2022-09-11T17:24:33;19.60;1.00
9323;DHT22;4700;48.822;9.270;2022-09-11T17:27:20;19.50;1.00
9323;DHT22;4700;48.822;9.270;2022-09-11T17:30:07;19.50;1.00
9323;DHT22;4700;48.822;9.270;2022-09-11T17:32:53;19.40;1.00
9323;DHT22;4700;48.822;9.270;2022-09-11T17:35:38;19.30;1.00
9323;DHT22;4700;48.822;9.270;2022-09-11T17:38:24;19.20;1.00
9323;DHT22;4700;48.822;9.270;2022-09-11T17:41:10;19.10;1.00
9323;DHT22;4700;48.822;9.270;2022-09-11T17:43:47;19.00;1.00
9323;DHT22;4700;48.822;9.270;2022-09-11T17:46:33;18.90;1.00
9323;DHT22;4700;48.822;9.270;2022-09-11T17:49:19;18.80;1.00
9323;DHT22;4700;48.822;9.270;2022-09-11T17:52:08;18.80;1.00
9323;DHT22;4700;48.822;9.270;2022-09-11T17:54:54;18.60;1.00
9323;DHT22;4700;48.822;9.270;2022-09-11T17:57:40;18.60;1.00
9323;DHT22;4700;48.822;9.270;2022-09-11T18:00:30;18.40;1.00
9323;DHT22;4700;48.822;9.270;2022-09-11T18:03:15;18.30;1.00
9323;DHT22;4700;48.822;9.270;2022-09-11T18:06:16;18.30;1.00
9323;DHT22;4700;48.822;9.270;2022-09-11T18:09:04;18.20;1.00
9323;DHT22;4700;48.822;9.270;2022-09-11T18:11:55;18.10;1.00
9323;DHT22;4700;48.822;9.270;2022-09-11T18:14:41;18.00;1.00
9323;DHT22;4700;48.822;9.270;2022-09-11T18:17:28;18.00;1.00
9323;DHT22;4700;48.822;9.270;2022-09-11T18:20:14;17.90;1.00
9323;DHT22;4700;48.822;9.270;2022-09-11T18:23:03;17.80;1.00
9323;DHT22;4700;48.822;9.270;2022-09-11T18:25:50;17.80;1.00
9323;DHT22;4700;48.822;9.270;2022-09-11T18:28:35;17.70;1.00
9323;DHT22;4700;48.822;9.270;2022-09-11T18:31:21;17.60;1.00
9323;DHT22;4700;48.822;9.270;2022-09-11T18:34:11;17.60;1.00
9323;DHT22;4700;48.822;9.270;2022-09-11T18:36:57;17.60;1.00
9323;DHT22;4700;48.822;9.270;2022-09-11T18:39:45;17.50;1.00
9323;DHT22;4700;48.822;9.270;2022-09-11T18:42:31;17.50;1.00
9323;DHT22;4700;48.822;9.270;2022-09-11T18:45:20;17.40;1.00
9323;DHT22;4700;48.822;9.270;2022-09-11T18:48:06;17.30;1.00